sensor_id;sensor_type;location;lat;lon;timestamp;P1;durP1;ratioP1;P2;durP2;ratioP2
17832;SDS011;9041;49.718;21.798;2022-09-09T00:00:13;10.30;;;5.38;;
17832;SDS011;9041;49.718;21.798;2022-09-09T00:02:42;8.23;;;5.57;;
17832;SDS011;9041;49.718;21.798;2022-09-09T00:05:16;8.18;;;5.90;;
17832;SDS011;9041;49.718;21.798;2022-09-09T00:07:48;9.48;;;5.50;;
17832;SDS011;9041;49.718;21.798;2022-09-09T00:10:22;9.25;;;5.85;;
17832;SDS011;9041;49.718;21.798;2022-09-09T00:12:53;10.25;;;6.20;;
17832;SDS011;9041;49.718;21.798;2022-09-09T00:15:24;9.55;;;6.03;;
17832;SDS011;9041;49.718;21.798;2022-09-09T00:17:53;11.18;;;6.25;;
17832;SDS011;9041;49.718;21.798;2022-09-09T00:20:24;10.20;;;6.18;;
17832;SDS011;9041;49.718;21.798;2022-09-09T00:22:57;10.60;;;6.63;;
17832;SDS011;9041;49.718;21.798;2022-09-09T00:25:31;9.52;;;7.10;;
17832;SDS011;9041;49.718;21.798;2022-09-09T00:28:02;12.35;;;8.10;;
17832;SDS011;9041;49.718;21.798;2022-09-09T00:30:31;9.93;;;7.22;;
17832;SDS011;9041;49.718;21.798;2022-09-09T00:33:00;10.48;;;7.07;;
17832;SDS011;9041;49.718;21.798;2022-09-09T00:35:29;11.05;;;7.90;;
17832;SDS011;9041;49.718;21.798;2022-09-09T00:37:58;12.82;;;9.10;;
17832;SDS011;9041;49.718;21.798;2022-09-09T00:40:31;13.20;;;8.68;;
17832;SDS011;9041;49.718;21.798;2022-09-09T00:43:09;13.88;;;8.38;;
17832;SDS011;9041;49.718;21.798;2022-09-09T00:48:56;12.88;;;8.50;;
17832;SDS011;9041;49.718;21.798;2022-09-09T00:51:30;12.45;;;8.40;;
17832;SDS011;9041;49.718;21.798;2022-09-09T00:54:10;12.85;;;8.25;;
17832;SDS011;9041;49.718;21.798;2022-09-09T00:56:45;12.95;;;8.63;;
17832;SDS011;9041;49.718;21.798;2022-09-09T00:59:18;14.38;;;8.63;;
17832;SDS011;9041;49.718;21.798;2022-09-09T01:01:51;12.15;;;8.10;;
17832;SDS011;9041;49.718;21.798;2022-09-09T01:04:21;10.68;;;7.88;;
17832;SDS011;9041;49.718;21.798;2022-09-09T01:06:57;10.57;;;7.47;;
17832;SDS011;9041;49.718;21.798;2022-09-09T01:09:29;11.93;;;7.47;;
17832;SDS011;9041;49.718;21.798;2022-09-09T01:12:07;8.50;;;6.57;;
17832;SDS011;9041;49.718;21.798;2022-09-09T01:14:39;10.50;;;7.03;;
17832;SDS011;9041;49.718;21.798;2022-09-09T01:17:11;11.00;;;6.68;;
17832;SDS011;9041;49.718;21.798;2022-09-09T01:19:50;9.57;;;7.10;;
17832;SDS011;9041;49.718;21.798;2022-09-09T01:22:26;11.85;;;6.72;;
17832;SDS011;9041;49.718;21.798;2022-09-09T01:25:16;11.65;;;7.30;;
17832;SDS011;9041;49.718;21.798;2022-09-09T01:27:56;9.45;;;6.50;;
17832;SDS011;9041;49.718;21.798;2022-09-09T01:30:25;11.23;;;7.00;;
17832;SDS011;9041;49.718;21.798;2022-09-09T01:32:53;10.23;;;7.38;;
17832;SDS011;9041;49.718;21.798;2022-09-09T01:35:33;11.00;;;7.45;;
17832;SDS011;9041;49.718;21.798;2022-09-09T01:38:04;10.00;;;7.45;;
17832;SDS011;9041;49.718;21.798;2022-09-09T01:40:31;10.35;;;6.68;;
17832;SDS011;9041;49.718;21.798;2022-09-09T01:43:00;11.55;;;6.90;;
17832;SDS011;9041;49.718;21.798;2022-09-09T01:45:29;10.63;;;7.15;;
17832;SDS011;9041;49.718;21.798;2022-09-09T01:47:56;11.93;;;7.40;;
17832;SDS011;9041;49.718;21.798;2022-09-09T01:50:23;10.95;;;7.80;;
17832;SDS011;9041;49.718;21.798;2022-09-09T01:52:51;11.13;;;7.70;;
17832;SDS011;9041;49.718;21.798;2022-09-09T01:55:20;13.00;;;7.55;;
17832;SDS011;9041;49.718;21.798;2022-09-09T01:57:52;10.18;;;7.50;;
17832;SDS011;9041;49.718;21.798;2022-09-09T02:00:26;11.50;;;7.80;;
17832;SDS011;9041;49.718;21.798;2022-09-09T02:02:56;11.55;;;7.47;;
17832;SDS011;9041;49.718;21.798;2022-09-09T02:05:28;14.48;;;7.97;;
17832;SDS011;9041;49.718;21.798;2022-09-09T02:08:00;11.73;;;8.05;;
17832;SDS011;9041;49.718;21.798;2022-09-09T02:10:33;13.68;;;8.40;;
17832;SDS011;9041;49.718;21.798;2022-09-09T02:13:03;11.02;;;8.13;;
17832;SDS011;9041;49.718;21.798;2022-09-09T02:15:35;13.65;;;8.02;;
17832;SDS011;9041;49.718;21.798;2022-09-09T02:18:06;12.57;;;8.02;;
17832;SDS011;9041;49.718;21.798;2022-09-09T02:20:34;12.05;;;7.57;;
17832;SDS011;9041;49.718;21.798;2022-09-09T02:23:01;12.73;;;8.23;;
17832;SDS011;9041;49.718;21.798;2022-09-09T02:25:28;13.98;;;8.50;;
17832;SDS011;9041;49.718;21.798;2022-09-09T02:27:55;11.77;;;7.97;;
17832;SDS011;9041;49.718;21.798;2022-09-09T02:30:24;12.30;;;8.35;;
17832;SDS011;9041;49.718;21.798;2022-09-09T02:32:52;11.88;;;8.18;;
17832;SDS011;9041;49.718;21.798;2022-09-09T02:35:22;11.70;;;7.97;;
17832;SDS011;9041;49.718;21.798;2022-09-09T02:37:51;11.65;;;7.70;;
17832;SDS011;9041;49.718;21.798;2022-09-09T02:40:24;12.95;;;8.57;;
17832;SDS011;9041;49.718;21.798;2022-09-09T02:42:51;11.73;;;7.85;;
17832;SDS011;9041;49.718;21.798;2022-09-09T02:45:18;13.95;;;8.23;;
17832;SDS011;9041;49.718;21.798;2022-09-09T02:47:59;12.85;;;7.82;;
17832;SDS011;9041;49.718;21.798;2022-09-09T02:50:31;13.70;;;8.68;;
17832;SDS011;9041;49.718;21.798;2022-09-09T02:53:02;15.00;;;7.97;;
17832;SDS011;9041;49.718;21.798;2022-09-09T02:55:37;15.95;;;9.13;;
17832;SDS011;9041;49.718;21.798;2022-09-09T02:58:08;13.32;;;8.63;;
17832;SDS011;9041;49.718;21.798;2022-09-09T03:00:42;11.15;;;7.85;;
17832;SDS011;9041;49.718;21.798;2022-09-09T03:03:11;12.82;;;8.63;;
17832;SDS011;9041;49.718;21.798;2022-09-09T03:05:38;11.43;;;8.00;;
17832;SDS011;9041;49.718;21.798;2022-09-09T03:08:05;12.80;;;8.45;;
17832;SDS011;9041;49.718;21.798;2022-09-09T03:10:32;14.35;;;8.65;;
17832;SDS011;9041;49.718;21.798;2022-09-09T03:13:00;13.75;;;8.90;;
17832;SDS011;9041;49.718;21.798;2022-09-09T03:15:26;15.30;;;8.95;;
17832;SDS011;9041;49.718;21.798;2022-09-09T03:17:54;14.23;;;9.40;;
17832;SDS011;9041;49.718;21.798;2022-09-09T03:20:23;15.35;;;10.85;;
17832;SDS011;9041;49.718;21.798;2022-09-09T03:22:51;18.92;;;11.10;;
17832;SDS011;9041;49.718;21.798;2022-09-09T03:25:18;16.60;;;10.48;;
17832;SDS011;9041;49.718;21.798;2022-09-09T03:27:45;13.93;;;9.55;;
17832;SDS011;9041;49.718;21.798;2022-09-09T03:30:11;17.92;;;11.05;;
17832;SDS011;9041;49.718;21.798;2022-09-09T03:32:41;18.73;;;11.73;;
17832;SDS011;9041;49.718;21.798;2022-09-09T03:35:11;20.90;;;11.15;;
17832;SDS011;9041;49.718;21.798;2022-09-09T03:37:39;14.85;;;10.30;;
17832;SDS011;9041;49.718;21.798;2022-09-09T03:40:07;15.82;;;10.63;;
17832;SDS011;9041;49.718;21.798;2022-09-09T03:42:34;16.50;;;10.30;;
17832;SDS011;9041;49.718;21.798;2022-09-09T03:45:02;15.88;;;10.23;;
17832;SDS011;9041;49.718;21.798;2022-09-09T03:47:29;18.65;;;11.18;;
17832;SDS011;9041;49.718;21.798;2022-09-09T03:49:56;16.75;;;11.18;;
17832;SDS011;9041;49.718;21.798;2022-09-09T03:52:22;18.85;;;10.80;;
17832;SDS011;9041;49.718;21.798;2022-09-09T03:54:53;18.17;;;10.48;;
17832;SDS011;9041;49.718;21.798;2022-09-09T03:57:22;20.25;;;11.18;;
17832;SDS011;9041;49.718;21.798;2022-09-09T03:59:49;16.83;;;11.20;;
17832;SDS011;9041;49.718;21.798;2022-09-09T04:02:17;16.58;;;10.25;;
17832;SDS011;9041;49.718;21.798;2022-09-09T04:04:44;18.25;;;10.07;;
17832;SDS011;9041;49.718;21.798;2022-09-09T04:07:11;15.57;;;10.13;;
17832;SDS011;9041;49.718;21.798;2022-09-09T04:09:38;14.70;;;9.35;;
17832;SDS011;9041;49.718;21.798;2022-09-09T04:12:06;15.10;;;10.13;;
17832;SDS011;9041;49.718;21.798;2022-09-09T04:14:33;15.77;;;10.13;;
17832;SDS011;9041;49.718;21.798;2022-09-09T04:17:00;17.38;;;11.30;;
17832;SDS011;9041;49.718;21.798;2022-09-09T04:19:34;18.65;;;11.00;;
17832;SDS011;9041;49.718;21.798;2022-09-09T04:22:07;16.10;;;10.57;;
17832;SDS011;9041;49.718;21.798;2022-09-09T04:24:34;15.43;;;10.35;;
17832;SDS011;9041;49.718;21.798;2022-09-09T04:27:01;14.40;;;10.07;;
17832;SDS011;9041;49.718;21.798;2022-09-09T04:29:29;14.10;;;9.98;;
17832;SDS011;9041;49.718;21.798;2022-09-09T04:31:56;12.20;;;8.63;;
17832;SDS011;9041;49.718;21.798;2022-09-09T04:34:22;17.20;;;8.98;;
17832;SDS011;9041;49.718;21.798;2022-09-09T04:36:50;12.20;;;8.75;;
17832;SDS011;9041;49.718;21.798;2022-09-09T04:39:17;10.98;;;8.27;;
17832;SDS011;9041;49.718;21.798;2022-09-09T04:41:44;13.02;;;8.55;;
17832;SDS011;9041;49.718;21.798;2022-09-09T04:44:12;13.93;;;8.93;;
17832;SDS011;9041;49.718;21.798;2022-09-09T04:46:40;19.63;;;8.88;;
17832;SDS011;9041;49.718;21.798;2022-09-09T04:49:07;13.75;;;9.57;;
17832;SDS011;9041;49.718;21.798;2022-09-09T04:51:34;14.60;;;10.05;;
17832;SDS011;9041;49.718;21.798;2022-09-09T04:54:00;14.35;;;9.90;;
17832;SDS011;9041;49.718;21.798;2022-09-09T04:56:27;18.45;;;9.77;;
17832;SDS011;9041;49.718;21.798;2022-09-09T04:58:54;14.52;;;10.10;;
17832;SDS011;9041;49.718;21.798;2022-09-09T05:01:22;16.65;;;10.98;;
17832;SDS011;9041;49.718;21.798;2022-09-09T05:03:51;17.38;;;11.57;;
17832;SDS011;9041;49.718;21.798;2022-09-09T05:06:18;19.15;;;11.32;;
17832;SDS011;9041;49.718;21.798;2022-09-09T05:08:47;19.90;;;12.05;;
17832;SDS011;9041;49.718;21.798;2022-09-09T05:11:17;19.98;;;11.80;;
17832;SDS011;9041;49.718;21.798;2022-09-09T05:13:46;19.00;;;12.15;;
17832;SDS011;9041;49.718;21.798;2022-09-09T05:16:15;25.73;;;13.57;;
17832;SDS011;9041;49.718;21.798;2022-09-09T05:18:42;20.25;;;12.80;;
17832;SDS011;9041;49.718;21.798;2022-09-09T05:21:11;23.25;;;13.75;;
17832;SDS011;9041;49.718;21.798;2022-09-09T05:23:38;22.88;;;13.57;;
17832;SDS011;9041;49.718;21.798;2022-09-09T05:26:09;19.60;;;12.85;;
17832;SDS011;9041;49.718;21.798;2022-09-09T05:28:41;26.42;;;13.20;;
17832;SDS011;9041;49.718;21.798;2022-09-09T05:31:08;21.08;;;13.48;;
17832;SDS011;9041;49.718;21.798;2022-09-09T05:33:40;22.60;;;13.35;;
17832;SDS011;9041;49.718;21.798;2022-09-09T05:36:09;22.73;;;14.40;;
17832;SDS011;9041;49.718;21.798;2022-09-09T05:38:38;22.27;;;13.88;;
17832;SDS011;9041;49.718;21.798;2022-09-09T05:41:05;25.65;;;14.50;;
17832;SDS011;9041;49.718;21.798;2022-09-09T05:43:33;23.40;;;14.88;;
17832;SDS011;9041;49.718;21.798;2022-09-09T05:46:01;24.15;;;13.95;;
17832;SDS011;9041;49.718;21.798;2022-09-09T05:48:29;24.65;;;13.80;;
17832;SDS011;9041;49.718;21.798;2022-09-09T05:50:57;24.58;;;14.13;;
17832;SDS011;9041;49.718;21.798;2022-09-09T05:53:25;23.52;;;13.63;;
17832;SDS011;9041;49.718;21.798;2022-09-09T05:55:58;19.55;;;13.35;;
17832;SDS011;9041;49.718;21.798;2022-09-09T05:58:25;21.90;;;13.02;;
17832;SDS011;9041;49.718;21.798;2022-09-09T06:00:52;22.30;;;13.75;;
17832;SDS011;9041;49.718;21.798;2022-09-09T06:03:20;22.92;;;14.18;;
17832;SDS011;9041;49.718;21.798;2022-09-09T06:05:56;22.00;;;13.48;;
17832;SDS011;9041;49.718;21.798;2022-09-09T06:08:25;22.35;;;13.45;;
17832;SDS011;9041;49.718;21.798;2022-09-09T06:10:52;21.42;;;13.05;;
17832;SDS011;9041;49.718;21.798;2022-09-09T06:13:25;24.35;;;13.65;;
17832;SDS011;9041;49.718;21.798;2022-09-09T06:15:51;23.58;;;13.45;;
17832;SDS011;9041;49.718;21.798;2022-09-09T06:18:19;21.20;;;12.38;;
17832;SDS011;9041;49.718;21.798;2022-09-09T06:20:55;19.08;;;12.55;;
17832;SDS011;9041;49.718;21.798;2022-09-09T06:23:22;20.48;;;12.57;;
17832;SDS011;9041;49.718;21.798;2022-09-09T06:25:51;19.20;;;12.20;;
17832;SDS011;9041;49.718;21.798;2022-09-09T06:28:18;20.35;;;11.95;;
17832;SDS011;9041;49.718;21.798;2022-09-09T06:30:45;19.92;;;12.10;;
17832;SDS011;9041;49.718;21.798;2022-09-09T06:33:12;19.52;;;11.40;;
17832;SDS011;9041;49.718;21.798;2022-09-09T06:35:39;19.95;;;11.98;;
17832;SDS011;9041;49.718;21.798;2022-09-09T06:38:05;17.08;;;11.70;;
17832;SDS011;9041;49.718;21.798;2022-09-09T06:40:35;18.88;;;11.80;;
17832;SDS011;9041;49.718;21.798;2022-09-09T06:43:02;19.00;;;12.30;;
17832;SDS011;9041;49.718;21.798;2022-09-09T06:45:28;20.40;;;11.70;;
17832;SDS011;9041;49.718;21.798;2022-09-09T06:47:59;20.42;;;11.65;;
17832;SDS011;9041;49.718;21.798;2022-09-09T06:50:26;20.45;;;12.43;;
17832;SDS011;9041;49.718;21.798;2022-09-09T06:52:52;20.40;;;12.45;;
17832;SDS011;9041;49.718;21.798;2022-09-09T06:55:19;19.23;;;12.00;;
17832;SDS011;9041;49.718;21.798;2022-09-09T06:57:48;19.65;;;12.05;;
17832;SDS011;9041;49.718;21.798;2022-09-09T07:00:16;19.13;;;12.48;;
17832;SDS011;9041;49.718;21.798;2022-09-09T07:02:43;20.80;;;12.18;;
17832;SDS011;9041;49.718;21.798;2022-09-09T07:05:10;21.15;;;12.85;;
17832;SDS011;9041;49.718;21.798;2022-09-09T07:07:37;20.40;;;12.85;;
17832;SDS011;9041;49.718;21.798;2022-09-09T07:10:07;18.88;;;11.52;;
17832;SDS011;9041;49.718;21.798;2022-09-09T07:12:34;17.00;;;12.20;;
17832;SDS011;9041;49.718;21.798;2022-09-09T07:15:02;18.27;;;12.18;;
17832;SDS011;9041;49.718;21.798;2022-09-09T07:17:30;18.60;;;12.05;;
17832;SDS011;9041;49.718;21.798;2022-09-09T07:19:56;20.42;;;12.40;;
17832;SDS011;9041;49.718;21.798;2022-09-09T07:22:23;18.73;;;11.80;;
17832;SDS011;9041;49.718;21.798;2022-09-09T07:24:50;15.88;;;10.80;;
17832;SDS011;9041;49.718;21.798;2022-09-09T07:27:17;16.45;;;10.73;;
17832;SDS011;9041;49.718;21.798;2022-09-09T07:29:43;19.35;;;11.00;;
17832;SDS011;9041;49.718;21.798;2022-09-09T07:32:12;15.27;;;10.27;;
17832;SDS011;9041;49.718;21.798;2022-09-09T07:34:39;15.13;;;10.02;;
17832;SDS011;9041;49.718;21.798;2022-09-09T07:37:08;14.02;;;9.32;;
17832;SDS011;9041;49.718;21.798;2022-09-09T07:39:36;11.27;;;8.82;;
17832;SDS011;9041;49.718;21.798;2022-09-09T07:42:04;17.70;;;9.45;;
17832;SDS011;9041;49.718;21.798;2022-09-09T07:44:30;11.77;;;8.30;;
17832;SDS011;9041;49.718;21.798;2022-09-09T07:47:00;12.40;;;8.23;;
17832;SDS011;9041;49.718;21.798;2022-09-09T07:49:28;12.30;;;7.97;;
17832;SDS011;9041;49.718;21.798;2022-09-09T07:51:55;11.65;;;7.60;;
17832;SDS011;9041;49.718;21.798;2022-09-09T07:54:22;10.80;;;7.68;;
17832;SDS011;9041;49.718;21.798;2022-09-09T07:56:50;10.38;;;6.68;;
17832;SDS011;9041;49.718;21.798;2022-09-09T07:59:17;10.00;;;6.70;;
17832;SDS011;9041;49.718;21.798;2022-09-09T08:01:45;7.22;;;5.43;;
17832;SDS011;9041;49.718;21.798;2022-09-09T08:04:13;9.40;;;5.85;;
17832;SDS011;9041;49.718;21.798;2022-09-09T08:06:43;7.22;;;5.47;;
17832;SDS011;9041;49.718;21.798;2022-09-09T08:09:14;6.10;;;4.80;;
17832;SDS011;9041;49.718;21.798;2022-09-09T08:11:43;6.90;;;5.07;;
17832;SDS011;9041;49.718;21.798;2022-09-09T08:14:10;7.72;;;4.60;;
17832;SDS011;9041;49.718;21.798;2022-09-09T08:16:38;6.38;;;4.90;;
17832;SDS011;9041;49.718;21.798;2022-09-09T08:19:08;6.95;;;4.57;;
17832;SDS011;9041;49.718;21.798;2022-09-09T08:21:36;6.30;;;4.55;;
17832;SDS011;9041;49.718;21.798;2022-09-09T08:24:06;5.07;;;4.10;;
17832;SDS011;9041;49.718;21.798;2022-09-09T08:26:35;5.72;;;4.20;;
17832;SDS011;9041;49.718;21.798;2022-09-09T08:29:04;6.35;;;3.95;;
17832;SDS011;9041;49.718;21.798;2022-09-09T08:31:32;4.88;;;3.72;;
17832;SDS011;9041;49.718;21.798;2022-09-09T08:34:00;4.35;;;3.75;;
17832;SDS011;9041;49.718;21.798;2022-09-09T08:36:29;4.85;;;3.90;;
17832;SDS011;9041;49.718;21.798;2022-09-09T08:38:58;5.05;;;3.63;;
17832;SDS011;9041;49.718;21.798;2022-09-09T08:44:28;4.40;;;3.42;;
17832;SDS011;9041;49.718;21.798;2022-09-09T08:47:04;4.57;;;3.15;;
17832;SDS011;9041;49.718;21.798;2022-09-09T08:49:47;5.68;;;3.80;;
17832;SDS011;9041;49.718;21.798;2022-09-09T08:52:29;5.55;;;3.67;;
17832;SDS011;9041;49.718;21.798;2022-09-09T08:54:58;4.50;;;3.47;;
17832;SDS011;9041;49.718;21.798;2022-09-09T08:57:38;4.25;;;3.45;;
17832;SDS011;9041;49.718;21.798;2022-09-09T09:00:07;6.78;;;3.65;;
17832;SDS011;9041;49.718;21.798;2022-09-09T09:02:37;5.28;;;4.30;;
17832;SDS011;9041;49.718;21.798;2022-09-09T09:05:12;6.47;;;3.70;;
17832;SDS011;9041;49.718;21.798;2022-09-09T09:07:48;4.63;;;3.95;;
17832;SDS011;9041;49.718;21.798;2022-09-09T09:10:25;5.80;;;4.38;;
17832;SDS011;9041;49.718;21.798;2022-09-09T09:13:02;8.98;;;5.10;;
17832;SDS011;9041;49.718;21.798;2022-09-09T09:15:30;8.60;;;4.75;;
17832;SDS011;9041;49.718;21.798;2022-09-09T09:18:01;8.77;;;5.55;;
17832;SDS011;9041;49.718;21.798;2022-09-09T09:20:29;7.65;;;4.68;;
17832;SDS011;9041;49.718;21.798;2022-09-09T09:23:01;7.32;;;4.30;;
17832;SDS011;9041;49.718;21.798;2022-09-09T09:25:31;5.40;;;4.07;;
17832;SDS011;9041;49.718;21.798;2022-09-09T09:27:59;5.38;;;4.28;;
17832;SDS011;9041;49.718;21.798;2022-09-09T09:30:34;6.18;;;3.97;;
17832;SDS011;9041;49.718;21.798;2022-09-09T09:33:04;5.75;;;3.80;;
17832;SDS011;9041;49.718;21.798;2022-09-09T09:35:37;6.25;;;4.10;;
17832;SDS011;9041;49.718;21.798;2022-09-09T09:38:08;4.65;;;3.88;;
17832;SDS011;9041;49.718;21.798;2022-09-09T09:40:47;4.70;;;3.92;;
17832;SDS011;9041;49.718;21.798;2022-09-09T09:43:19;4.45;;;4.00;;
17832;SDS011;9041;49.718;21.798;2022-09-09T09:45:48;4.85;;;3.53;;
17832;SDS011;9041;49.718;21.798;2022-09-09T09:48:14;5.28;;;3.95;;
17832;SDS011;9041;49.718;21.798;2022-09-09T09:50:46;5.13;;;4.10;;
17832;SDS011;9041;49.718;21.798;2022-09-09T09:53:24;5.50;;;3.90;;
17832;SDS011;9041;49.718;21.798;2022-09-09T09:55:53;8.95;;;3.90;;
17832;SDS011;9041;49.718;21.798;2022-09-09T09:58:23;4.38;;;3.50;;
17832;SDS011;9041;49.718;21.798;2022-09-09T10:00:55;4.75;;;3.92;;
17832;SDS011;9041;49.718;21.798;2022-09-09T10:03:23;5.20;;;3.70;;
17832;SDS011;9041;49.718;21.798;2022-09-09T10:05:52;4.45;;;3.92;;
17832;SDS011;9041;49.718;21.798;2022-09-09T10:08:19;5.50;;;4.50;;
17832;SDS011;9041;49.718;21.798;2022-09-09T10:10:50;4.72;;;4.13;;
17832;SDS011;9041;49.718;21.798;2022-09-09T10:13:27;5.45;;;4.15;;
17832;SDS011;9041;49.718;21.798;2022-09-09T10:16:04;5.88;;;4.63;;
17832;SDS011;9041;49.718;21.798;2022-09-09T10:18:47;7.43;;;4.60;;
17832;SDS011;9041;49.718;21.798;2022-09-09T10:21:25;4.85;;;4.15;;
17832;SDS011;9041;49.718;21.798;2022-09-09T10:24:05;4.55;;;3.97;;
17832;SDS011;9041;49.718;21.798;2022-09-09T10:26:45;6.15;;;4.38;;
17832;SDS011;9041;49.718;21.798;2022-09-09T10:29:22;5.88;;;4.43;;
17832;SDS011;9041;49.718;21.798;2022-09-09T10:32:01;6.70;;;4.57;;
17832;SDS011;9041;49.718;21.798;2022-09-09T10:34:39;5.45;;;4.63;;
17832;SDS011;9041;49.718;21.798;2022-09-09T10:37:35;7.53;;;4.80;;
17832;SDS011;9041;49.718;21.798;2022-09-09T10:40:14;7.43;;;4.63;;
17832;SDS011;9041;49.718;21.798;2022-09-09T10:42:55;6.43;;;4.72;;
17832;SDS011;9041;49.718;21.798;2022-09-09T10:45:29;7.10;;;5.10;;
17832;SDS011;9041;49.718;21.798;2022-09-09T10:48:09;7.95;;;5.35;;
17832;SDS011;9041;49.718;21.798;2022-09-09T10:50:48;6.55;;;4.93;;
17832;SDS011;9041;49.718;21.798;2022-09-09T10:53:19;6.00;;;5.10;;
17832;SDS011;9041;49.718;21.798;2022-09-09T10:55:52;8.80;;;6.32;;
17832;SDS011;9041;49.718;21.798;2022-09-09T10:58:23;8.32;;;5.97;;
17832;SDS011;9041;49.718;21.798;2022-09-09T11:00:54;11.50;;;6.72;;
17832;SDS011;9041;49.718;21.798;2022-09-09T11:03:23;7.25;;;6.00;;
17832;SDS011;9041;49.718;21.798;2022-09-09T11:05:55;7.50;;;5.85;;
17832;SDS011;9041;49.718;21.798;2022-09-09T11:08:26;9.18;;;6.10;;
17832;SDS011;9041;49.718;21.798;2022-09-09T11:10:57;8.00;;;5.35;;
17832;SDS011;9041;49.718;21.798;2022-09-09T11:13:28;11.60;;;6.35;;
17832;SDS011;9041;49.718;21.798;2022-09-09T11:16:01;7.50;;;6.28;;
17832;SDS011;9041;49.718;21.798;2022-09-09T11:18:32;8.52;;;6.30;;
17832;SDS011;9041;49.718;21.798;2022-09-09T11:21:04;7.28;;;5.80;;
17832;SDS011;9041;49.718;21.798;2022-09-09T11:23:37;8.68;;;6.25;;
17832;SDS011;9041;49.718;21.798;2022-09-09T11:26:07;6.97;;;5.43;;
17832;SDS011;9041;49.718;21.798;2022-09-09T11:28:41;7.72;;;6.03;;
17832;SDS011;9041;49.718;21.798;2022-09-09T11:31:26;9.63;;;5.53;;
17832;SDS011;9041;49.718;21.798;2022-09-09T11:34:12;9.20;;;6.03;;
17832;SDS011;9041;49.718;21.798;2022-09-09T11:39:38;8.35;;;5.88;;
17832;SDS011;9041;49.718;21.798;2022-09-09T11:42:30;8.32;;;5.32;;
17832;SDS011;9041;49.718;21.798;2022-09-09T11:44:57;7.13;;;5.43;;
17832;SDS011;9041;49.718;21.798;2022-09-09T11:47:37;9.93;;;5.63;;
17832;SDS011;9041;49.718;21.798;2022-09-09T11:50:08;8.00;;;5.47;;
17832;SDS011;9041;49.718;21.798;2022-09-09T11:52:37;6.15;;;4.93;;
17832;SDS011;9041;49.718;21.798;2022-09-09T11:55:10;7.47;;;5.80;;
17832;SDS011;9041;49.718;21.798;2022-09-09T11:57:38;7.38;;;5.60;;
17832;SDS011;9041;49.718;21.798;2022-09-09T12:00:06;7.03;;;5.55;;
17832;SDS011;9041;49.718;21.798;2022-09-09T12:02:52;6.65;;;5.13;;
17832;SDS011;9041;49.718;21.798;2022-09-09T12:05:18;7.30;;;4.80;;
17832;SDS011;9041;49.718;21.798;2022-09-09T12:07:48;7.18;;;4.82;;
17832;SDS011;9041;49.718;21.798;2022-09-09T12:10:23;6.65;;;5.13;;
17832;SDS011;9041;49.718;21.798;2022-09-09T12:12:53;8.57;;;5.55;;
17832;SDS011;9041;49.718;21.798;2022-09-09T12:15:26;7.30;;;4.97;;
17832;SDS011;9041;49.718;21.798;2022-09-09T12:17:56;6.55;;;4.65;;
17832;SDS011;9041;49.718;21.798;2022-09-09T12:20:26;8.73;;;5.38;;
17832;SDS011;9041;49.718;21.798;2022-09-09T12:28:46;6.55;;;5.03;;
17832;SDS011;9041;49.718;21.798;2022-09-09T12:31:21;7.07;;;5.00;;
17832;SDS011;9041;49.718;21.798;2022-09-09T12:33:52;6.10;;;4.63;;
17832;SDS011;9041;49.718;21.798;2022-09-09T12:36:20;10.30;;;5.53;;
17832;SDS011;9041;49.718;21.798;2022-09-09T12:38:48;6.25;;;4.70;;
17832;SDS011;9041;49.718;21.798;2022-09-09T12:41:22;7.35;;;5.25;;
17832;SDS011;9041;49.718;21.798;2022-09-09T12:44:02;6.55;;;4.88;;
17832;SDS011;9041;49.718;21.798;2022-09-09T12:46:32;9.30;;;4.65;;
17832;SDS011;9041;49.718;21.798;2022-09-09T12:49:03;6.88;;;4.82;;
17832;SDS011;9041;49.718;21.798;2022-09-09T12:51:31;6.72;;;5.03;;
17832;SDS011;9041;49.718;21.798;2022-09-09T12:53:59;6.07;;;4.75;;
17832;SDS011;9041;49.718;21.798;2022-09-09T12:56:27;7.63;;;4.82;;
17832;SDS011;9041;49.718;21.798;2022-09-09T12:58:55;5.63;;;4.60;;
17832;SDS011;9041;49.718;21.798;2022-09-09T13:01:26;5.97;;;4.50;;
17832;SDS011;9041;49.718;21.798;2022-09-09T13:03:55;10.07;;;5.18;;
17832;SDS011;9041;49.718;21.798;2022-09-09T13:06:23;9.60;;;5.78;;
17832;SDS011;9041;49.718;21.798;2022-09-09T13:08:54;9.52;;;5.70;;
17832;SDS011;9041;49.718;21.798;2022-09-09T13:11:21;7.40;;;5.30;;
17832;SDS011;9041;49.718;21.798;2022-09-09T13:13:51;8.23;;;4.88;;
17832;SDS011;9041;49.718;21.798;2022-09-09T13:16:19;5.57;;;4.65;;
17832;SDS011;9041;49.718;21.798;2022-09-09T13:18:48;7.28;;;5.53;;
17832;SDS011;9041;49.718;21.798;2022-09-09T13:21:15;7.25;;;5.35;;
17832;SDS011;9041;49.718;21.798;2022-09-09T13:23:47;5.82;;;4.55;;
17832;SDS011;9041;49.718;21.798;2022-09-09T13:26:20;7.18;;;5.03;;
17832;SDS011;9041;49.718;21.798;2022-09-09T13:28:48;7.45;;;4.78;;
17832;SDS011;9041;49.718;21.798;2022-09-09T13:31:21;6.57;;;5.10;;
17832;SDS011;9041;49.718;21.798;2022-09-09T13:33:52;6.43;;;4.97;;
17832;SDS011;9041;49.718;21.798;2022-09-09T13:36:27;5.43;;;4.63;;
17832;SDS011;9041;49.718;21.798;2022-09-09T13:38:57;7.45;;;4.50;;
17832;SDS011;9041;49.718;21.798;2022-09-09T13:41:27;5.60;;;4.65;;
17832;SDS011;9041;49.718;21.798;2022-09-09T13:43:56;5.10;;;4.60;;
17832;SDS011;9041;49.718;21.798;2022-09-09T13:46:28;6.72;;;4.63;;
17832;SDS011;9041;49.718;21.798;2022-09-09T13:48:59;6.63;;;5.30;;
17832;SDS011;9041;49.718;21.798;2022-09-09T13:51:33;5.93;;;4.90;;
17832;SDS011;9041;49.718;21.798;2022-09-09T13:54:03;9.30;;;5.35;;
17832;SDS011;9041;49.718;21.798;2022-09-09T13:56:31;8.80;;;5.22;;
17832;SDS011;9041;49.718;21.798;2022-09-09T13:59:01;8.43;;;5.20;;
17832;SDS011;9041;49.718;21.798;2022-09-09T14:01:29;11.13;;;5.05;;
17832;SDS011;9041;49.718;21.798;2022-09-09T14:03:56;6.07;;;4.78;;
17832;SDS011;9041;49.718;21.798;2022-09-09T14:06:24;5.43;;;4.60;;
17832;SDS011;9041;49.718;21.798;2022-09-09T14:08:51;6.97;;;4.78;;
17832;SDS011;9041;49.718;21.798;2022-09-09T14:11:21;6.03;;;4.65;;
17832;SDS011;9041;49.718;21.798;2022-09-09T14:13:48;8.32;;;4.60;;
17832;SDS011;9041;49.718;21.798;2022-09-09T14:16:15;5.95;;;4.68;;
17832;SDS011;9041;49.718;21.798;2022-09-09T14:18:42;9.20;;;4.35;;
17832;SDS011;9041;49.718;21.798;2022-09-09T14:21:09;5.20;;;4.47;;
17832;SDS011;9041;49.718;21.798;2022-09-09T14:23:36;6.60;;;4.25;;
17832;SDS011;9041;49.718;21.798;2022-09-09T14:26:07;5.07;;;4.43;;
17832;SDS011;9041;49.718;21.798;2022-09-09T14:28:35;4.80;;;3.92;;
17832;SDS011;9041;49.718;21.798;2022-09-09T14:31:03;4.53;;;3.97;;
17832;SDS011;9041;49.718;21.798;2022-09-09T14:33:32;7.53;;;4.13;;
17832;SDS011;9041;49.718;21.798;2022-09-09T14:36:00;5.40;;;3.70;;
17832;SDS011;9041;49.718;21.798;2022-09-09T14:38:28;6.95;;;3.78;;
17832;SDS011;9041;49.718;21.798;2022-09-09T14:40:56;5.72;;;3.88;;
17832;SDS011;9041;49.718;21.798;2022-09-09T14:43:23;7.03;;;3.75;;
17832;SDS011;9041;49.718;21.798;2022-09-09T14:45:53;5.50;;;3.83;;
17832;SDS011;9041;49.718;21.798;2022-09-09T14:48:20;6.75;;;4.57;;
17832;SDS011;9041;49.718;21.798;2022-09-09T14:50:46;5.28;;;3.97;;
17832;SDS011;9041;49.718;21.798;2022-09-09T14:53:15;5.63;;;4.35;;
17832;SDS011;9041;49.718;21.798;2022-09-09T14:55:42;5.18;;;4.15;;
17832;SDS011;9041;49.718;21.798;2022-09-09T14:58:11;5.43;;;4.25;;
17832;SDS011;9041;49.718;21.798;2022-09-09T15:00:38;7.53;;;4.13;;
17832;SDS011;9041;49.718;21.798;2022-09-09T15:03:07;5.30;;;4.38;;
17832;SDS011;9041;49.718;21.798;2022-09-09T15:05:35;5.35;;;4.18;;
17832;SDS011;9041;49.718;21.798;2022-09-09T15:08:02;6.25;;;3.90;;
17832;SDS011;9041;49.718;21.798;2022-09-09T15:10:29;4.90;;;4.07;;